sensor_id;sensor_type;location;lat;lon;timestamp;temperature;humidity
31967;DHT22;18496;52.042;6.812;2023-03-19T00:01:44;15.30;99.90
31967;DHT22;18496;52.042;6.812;2023-03-19T00:03:47;15.20;99.90
31967;DHT22;18496;52.042;6.812;2023-03-19T00:05:51;15.20;99.90
31967;DHT22;18496;52.042;6.812;2023-03-19T00:07:55;15.10;99.90
31967;DHT22;18496;52.042;6.812;2023-03-19T00:09:59;15.00;99.90
31967;DHT22;18496;52.042;6.812;2023-03-19T00:12:02;15.00;99.90
31967;DHT22;18496;52.042;6.812;2023-03-19T00:14:06;14.90;99.90
31967;DHT22;18496;52.042;6.812;2023-03-19T00:16:10;14.90;99.90
31967;DHT22;18496;52.042;6.812;2023-03-19T00:18:14;14.80;99.90
31967;DHT22;18496;52.042;6.812;2023-03-19T00:20:17;14.90;99.90
31967;DHT22;18496;52.042;6.812;2023-03-19T00:22:22;14.80;99.90
31967;DHT22;18496;52.042;6.812;2023-03-19T00:24:26;14.80;99.90
31967;DHT22;18496;52.042;6.812;2023-03-19T00:26:33;14.80;99.90
31967;DHT22;18496;52.042;6.812;2023-03-19T00:28:37;14.70;99.90
31967;DHT22;18496;52.042;6.812;2023-03-19T00:30:40;14.70;99.90
31967;DHT22;18496;52.042;6.812;2023-03-19T00:32:44;14.70;99.90
31967;DHT22;18496;52.042;6.812;2023-03-19T00:34:48;14.70;99.90
31967;DHT22;18496;52.042;6.812;2023-03-19T00:36:54;14.80;99.90
31967;DHT22;18496;52.042;6.812;2023-03-19T00:38:59;14.80;99.90
31967;DHT22;18496;52.042;6.812;2023-03-19T00:41:03;14.80;99.90
31967;DHT22;18496;52.042;6.812;2023-03-19T00:43:08;14.70;99.90
31967;DHT22;18496;52.042;6.812;2023-03-19T00:45:11;14.60;99.90
31967;DHT22;18496;52.042;6.812;2023-03-19T00:47:15;14.60;99.90
31967;DHT22;18496;52.042;6.812;2023-03-19T00:49:19;14.50;99.90
31967;DHT22;18496;52.042;6.812;2023-03-19T00:51:23;14.50;99.90
31967;DHT22;18496;52.042;6.812;2023-03-19T00:53:27;14.30;99.90
31967;DHT22;18496;52.042;6.812;2023-03-19T00:55:31;14.30;99.90
31967;DHT22;18496;52.042;6.812;2023-03-19T00:57:35;14.30;99.90
31967;DHT22;18496;52.042;6.812;2023-03-19T00:59:39;14.20;99.90
31967;DHT22;18496;52.042;6.812;2023-03-19T01:01:43;14.20;99.90
31967;DHT22;18496;52.042;6.812;2023-03-19T01:03:47;14.20;99.90
31967;DHT22;18496;52.042;6.812;2023-03-19T01:05:50;14.10;99.90
31967;DHT22;18496;52.042;6.812;2023-03-19T01:07:54;14.20;99.90
31967;DHT22;18496;52.042;6.812;2023-03-19T01:09:58;14.20;99.90
31967;DHT22;18496;52.042;6.812;2023-03-19T01:12:02;14.20;99.90
31967;DHT22;18496;52.042;6.812;2023-03-19T01:14:08;14.20;99.90
31967;DHT22;18496;52.042;6.812;2023-03-19T01:16:11;14.20;99.90
31967;DHT22;18496;52.042;6.812;2023-03-19T01:18:15;14.20;99.90
31967;DHT22;18496;52.042;6.812;2023-03-19T01:20:19;14.20;99.90
31967;DHT22;18496;52.042;6.812;2023-03-19T01:22:26;14.30;99.90
31967;DHT22;18496;52.042;6.812;2023-03-19T01:24:34;14.30;99.90
31967;DHT22;18496;52.042;6.812;2023-03-19T01:26:39;14.30;99.90
31967;DHT22;18496;52.042;6.812;2023-03-19T01:28:54;14.40;99.90
31967;DHT22;18496;52.042;6.812;2023-03-19T01:30:59;14.50;99.90
31967;DHT22;18496;52.042;6.812;2023-03-19T01:33:21;14.50;99.90
31967;DHT22;18496;52.042;6.812;2023-03-19T01:35:48;14.50;99.90
31967;DHT22;18496;52.042;6.812;2023-03-19T01:37:53;14.50;99.90
31967;DHT22;18496;52.042;6.812;2023-03-19T01:39:58;14.50;99.90
31967;DHT22;18496;52.042;6.812;2023-03-19T01:42:01;14.50;99.90
31967;DHT22;18496;52.042;6.812;2023-03-19T01:44:33;14.50;99.90
31967;DHT22;18496;52.042;6.812;2023-03-19T01:46:56;14.60;99.90
31967;DHT22;18496;52.042;6.812;2023-03-19T01:49:18;14.60;99.90
31967;DHT22;18496;52.042;6.812;2023-03-19T01:51:28;14.50;99.90
31967;DHT22;18496;52.042;6.812;2023-03-19T01:53:52;14.50;99.90
31967;DHT22;18496;52.042;6.812;2023-03-19T01:56:11;14.50;99.90
31967;DHT22;18496;52.042;6.812;2023-03-19T01:58:26;14.50;99.90
31967;DHT22;18496;52.042;6.812;2023-03-19T02:00:48;14.60;99.90
31967;DHT22;18496;52.042;6.812;2023-03-19T02:02:52;14.60;99.90
31967;DHT22;18496;52.042;6.812;2023-03-19T02:05:13;14.60;99.90
31967;DHT22;18496;52.042;6.812;2023-03-19T02:07:18;14.60;99.90
31967;DHT22;18496;52.042;6.812;2023-03-19T02:09:23;14.60;99.90
31967;DHT22;18496;52.042;6.812;2023-03-19T02:11:27;14.60;99.90
31967;DHT22;18496;52.042;6.812;2023-03-19T02:13:32;14.60;99.90
31967;DHT22;18496;52.042;6.812;2023-03-19T02:15:36;14.60;99.90
31967;DHT22;18496;52.042;6.812;2023-03-19T02:17:39;14.60;99.90
31967;DHT22;18496;52.042;6.812;2023-03-19T02:21:49;14.60;99.90
31967;DHT22;18496;52.042;6.812;2023-03-19T02:23:59;14.50;99.90
31967;DHT22;18496;52.042;6.812;2023-03-19T02:26:22;14.50;99.90
31967;DHT22;18496;52.042;6.812;2023-03-19T02:28:28;14.50;99.90
31967;DHT22;18496;52.042;6.812;2023-03-19T02:30:33;14.50;99.90
31967;DHT22;18496;52.042;6.812;2023-03-19T02:32:41;14.50;99.90
31967;DHT22;18496;52.042;6.812;2023-03-19T02:34:46;14.50;99.90
31967;DHT22;18496;52.042;6.812;2023-03-19T02:36:56;14.50;99.90
31967;DHT22;18496;52.042;6.812;2023-03-19T02:39:02;14.50;99.90
31967;DHT22;18496;52.042;6.812;2023-03-19T02:41:07;14.50;99.90
31967;DHT22;18496;52.042;6.812;2023-03-19T02:43:11;14.50;99.90
31967;DHT22;18496;52.042;6.812;2023-03-19T02:45:14;14.40;99.90
31967;DHT22;18496;52.042;6.812;2023-03-19T02:47:19;14.40;99.90
31967;DHT22;18496;52.042;6.812;2023-03-19T02:49:23;14.30;99.90
31967;DHT22;18496;52.042;6.812;2023-03-19T02:51:27;14.30;99.90
31967;DHT22;18496;52.042;6.812;2023-03-19T02:53:31;14.20;99.90
31967;DHT22;18496;52.042;6.812;2023-03-19T02:55:37;14.20;99.90
31967;DHT22;18496;52.042;6.812;2023-03-19T02:57:41;14.20;99.90
31967;DHT22;18496;52.042;6.812;2023-03-19T02:59:45;14.20;99.90
31967;DHT22;18496;52.042;6.812;2023-03-19T03:01:48;14.20;99.90
31967;DHT22;18496;52.042;6.812;2023-03-19T03:03:53;14.20;99.90
31967;DHT22;18496;52.042;6.812;2023-03-19T03:05:56;14.20;99.90
31967;DHT22;18496;52.042;6.812;2023-03-19T03:08:00;14.20;99.90
31967;DHT22;18496;52.042;6.812;2023-03-19T03:10:04;14.20;99.90
31967;DHT22;18496;52.042;6.812;2023-03-19T03:12:08;14.10;99.90
31967;DHT22;18496;52.042;6.812;2023-03-19T03:14:12;14.10;99.90
31967;DHT22;18496;52.042;6.812;2023-03-19T03:16:15;14.10;99.90
31967;DHT22;18496;52.042;6.812;2023-03-19T03:18:19;14.10;99.90
31967;DHT22;18496;52.042;6.812;2023-03-19T03:20:23;14.10;99.90
31967;DHT22;18496;52.042;6.812;2023-03-19T03:22:27;14.10;99.90
31967;DHT22;18496;52.042;6.812;2023-03-19T03:24:30;14.10;99.90
31967;DHT22;18496;52.042;6.812;2023-03-19T03:26:34;14.10;99.90
31967;DHT22;18496;52.042;6.812;2023-03-19T03:28:41;14.10;99.90
31967;DHT22;18496;52.042;6.812;2023-03-19T03:30:45;14.10;99.90
31967;DHT22;18496;52.042;6.812;2023-03-19T03:32:49;14.10;99.90
31967;DHT22;18496;52.042;6.812;2023-03-19T03:34:54;14.10;99.90
31967;DHT22;18496;52.042;6.812;2023-03-19T03:36:58;14.10;99.90
31967;DHT22;18496;52.042;6.812;2023-03-19T03:39:02;14.00;99.90
31967;DHT22;18496;52.042;6.812;2023-03-19T03:41:06;14.00;99.90
31967;DHT22;18496;52.042;6.812;2023-03-19T03:43:10;14.00;99.90
31967;DHT22;18496;52.042;6.812;2023-03-19T03:45:13;14.00;99.90
31967;DHT22;18496;52.042;6.812;2023-03-19T03:47:20;14.00;99.90
31967;DHT22;18496;52.042;6.812;2023-03-19T03:49:24;14.10;99.90
31967;DHT22;18496;52.042;6.812;2023-03-19T03:51:28;14.10;99.90
31967;DHT22;18496;52.042;6.812;2023-03-19T03:53:32;14.10;99.90
31967;DHT22;18496;52.042;6.812;2023-03-19T03:55:36;14.10;99.90
31967;DHT22;18496;52.042;6.812;2023-03-19T03:57:40;14.10;99.90
31967;DHT22;18496;52.042;6.812;2023-03-19T03:59:43;14.00;99.90
31967;DHT22;18496;52.042;6.812;2023-03-19T04:01:47;14.10;99.90
31967;DHT22;18496;52.042;6.812;2023-03-19T04:03:51;14.00;99.90
31967;DHT22;18496;52.042;6.812;2023-03-19T04:05:55;14.00;99.90
31967;DHT22;18496;52.042;6.812;2023-03-19T04:07:59;14.00;99.90
31967;DHT22;18496;52.042;6.812;2023-03-19T04:10:04;14.00;99.90
31967;DHT22;18496;52.042;6.812;2023-03-19T04:12:07;14.00;99.90
31967;DHT22;18496;52.042;6.812;2023-03-19T04:14:11;13.90;99.90
31967;DHT22;18496;52.042;6.812;2023-03-19T04:16:16;13.90;99.90
31967;DHT22;18496;52.042;6.812;2023-03-19T04:18:20;13.90;99.90
31967;DHT22;18496;52.042;6.812;2023-03-19T04:20:23;13.80;99.90
31967;DHT22;18496;52.042;6.812;2023-03-19T04:22:27;13.80;99.90
31967;DHT22;18496;52.042;6.812;2023-03-19T04:24:31;13.80;99.90
31967;DHT22;18496;52.042;6.812;2023-03-19T04:26:36;13.80;99.90
31967;DHT22;18496;52.042;6.812;2023-03-19T04:28:40;13.80;99.90
31967;DHT22;18496;52.042;6.812;2023-03-19T04:30:44;13.80;99.90
31967;DHT22;18496;52.042;6.812;2023-03-19T04:32:47;13.80;99.90
31967;DHT22;18496;52.042;6.812;2023-03-19T04:34:52;13.70;99.90
31967;DHT22;18496;52.042;6.812;2023-03-19T04:36:56;13.70;99.90
31967;DHT22;18496;52.042;6.812;2023-03-19T04:39:00;13.80;99.90
31967;DHT22;18496;52.042;6.812;2023-03-19T04:41:04;13.80;99.90
31967;DHT22;18496;52.042;6.812;2023-03-19T04:43:11;13.70;99.90
31967;DHT22;18496;52.042;6.812;2023-03-19T04:45:15;13.70;99.90
31967;DHT22;18496;52.042;6.812;2023-03-19T04:47:20;13.70;99.90
31967;DHT22;18496;52.042;6.812;2023-03-19T04:49:31;13.70;99.90
31967;DHT22;18496;52.042;6.812;2023-03-19T04:51:37;13.70;99.90
31967;DHT22;18496;52.042;6.812;2023-03-19T04:53:41;13.70;99.90
31967;DHT22;18496;52.042;6.812;2023-03-19T04:55:45;13.70;99.90
31967;DHT22;18496;52.042;6.812;2023-03-19T04:57:58;13.70;99.90
31967;DHT22;18496;52.042;6.812;2023-03-19T05:00:05;13.60;99.90
31967;DHT22;18496;52.042;6.812;2023-03-19T05:02:12;13.60;99.90
31967;DHT22;18496;52.042;6.812;2023-03-19T05:04:17;13.60;99.90
31967;DHT22;18496;52.042;6.812;2023-03-19T05:06:22;13.60;99.90
31967;DHT22;18496;52.042;6.812;2023-03-19T05:08:26;13.60;99.90
31967;DHT22;18496;52.042;6.812;2023-03-19T05:10:30;13.50;99.90
31967;DHT22;18496;52.042;6.812;2023-03-19T05:12:34;13.50;99.90
31967;DHT22;18496;52.042;6.812;2023-03-19T05:14:39;13.50;99.90
31967;DHT22;18496;52.042;6.812;2023-03-19T05:16:48;13.60;99.90
31967;DHT22;18496;52.042;6.812;2023-03-19T05:18:52;13.50;99.90
31967;DHT22;18496;52.042;6.812;2023-03-19T05:20:55;13.50;99.90
31967;DHT22;18496;52.042;6.812;2023-03-19T05:23:01;13.50;99.90
31967;DHT22;18496;52.042;6.812;2023-03-19T05:25:15;13.60;99.90
31967;DHT22;18496;52.042;6.812;2023-03-19T05:27:21;13.60;99.90
31967;DHT22;18496;52.042;6.812;2023-03-19T05:29:39;13.60;99.90
31967;DHT22;18496;52.042;6.812;2023-03-19T05:31:58;13.60;99.90
31967;DHT22;18496;52.042;6.812;2023-03-19T05:34:05;13.60;99.90
31967;DHT22;18496;52.042;6.812;2023-03-19T05:36:10;13.60;99.90
31967;DHT22;18496;52.042;6.812;2023-03-19T05:38:26;13.60;99.90
31967;DHT22;18496;52.042;6.812;2023-03-19T05:40:36;13.60;99.90
31967;DHT22;18496;52.042;6.812;2023-03-19T05:42:51;13.50;99.90
31967;DHT22;18496;52.042;6.812;2023-03-19T05:44:58;13.50;99.90
31967;DHT22;18496;52.042;6.812;2023-03-19T05:47:05;13.50;99.90
31967;DHT22;18496;52.042;6.812;2023-03-19T05:49:11;13.50;99.90
31967;DHT22;18496;52.042;6.812;2023-03-19T05:51:15;13.50;99.90
31967;DHT22;18496;52.042;6.812;2023-03-19T05:53:21;13.50;99.90
31967;DHT22;18496;52.042;6.812;2023-03-19T05:55:45;13.50;99.90
31967;DHT22;18496;52.042;6.812;2023-03-19T05:57:48;13.50;99.90
31967;DHT22;18496;52.042;6.812;2023-03-19T06:00:00;13.50;99.90
31967;DHT22;18496;52.042;6.812;2023-03-19T06:02:09;13.50;99.90
31967;DHT22;18496;52.042;6.812;2023-03-19T06:04:15;13.50;99.90
31967;DHT22;18496;52.042;6.812;2023-03-19T06:06:18;13.40;99.90
31967;DHT22;18496;52.042;6.812;2023-03-19T06:08:27;13.40;99.90
31967;DHT22;18496;52.042;6.812;2023-03-19T06:10:37;13.40;99.90
31967;DHT22;18496;52.042;6.812;2023-03-19T06:12:45;13.30;99.90
31967;DHT22;18496;52.042;6.812;2023-03-19T06:15:19;13.30;99.90
31967;DHT22;18496;52.042;6.812;2023-03-19T06:17:26;13.40;99.90
31967;DHT22;18496;52.042;6.812;2023-03-19T06:19:32;13.40;99.90
31967;DHT22;18496;52.042;6.812;2023-03-19T06:21:36;13.40;99.90
31967;DHT22;18496;52.042;6.812;2023-03-19T06:23:40;13.50;99.90
31967;DHT22;18496;52.042;6.812;2023-03-19T06:25:45;13.40;99.90
31967;DHT22;18496;52.042;6.812;2023-03-19T06:27:50;13.50;99.90
31967;DHT22;18496;52.042;6.812;2023-03-19T06:30:01;13.40;99.90
31967;DHT22;18496;52.042;6.812;2023-03-19T06:32:09;13.40;99.90
31967;DHT22;18496;52.042;6.812;2023-03-19T06:34:16;13.50;99.90
31967;DHT22;18496;52.042;6.812;2023-03-19T06:36:21;13.40;99.90
31967;DHT22;18496;52.042;6.812;2023-03-19T06:38:25;13.40;99.90
31967;DHT22;18496;52.042;6.812;2023-03-19T06:40:29;13.40;99.90
31967;DHT22;18496;52.042;6.812;2023-03-19T06:42:32;13.50;99.90
31967;DHT22;18496;52.042;6.812;2023-03-19T06:44:36;13.40;99.90
31967;DHT22;18496;52.042;6.812;2023-03-19T06:46:40;13.40;99.90
31967;DHT22;18496;52.042;6.812;2023-03-19T06:48:43;13.50;99.90
31967;DHT22;18496;52.042;6.812;2023-03-19T06:50:47;13.50;99.90
31967;DHT22;18496;52.042;6.812;2023-03-19T06:52:51;13.40;99.90
31967;DHT22;18496;52.042;6.812;2023-03-19T06:54:54;13.40;99.90
31967;DHT22;18496;52.042;6.812;2023-03-19T06:56:58;13.40;99.90
31967;DHT22;18496;52.042;6.812;2023-03-19T06:59:02;13.40;99.90
31967;DHT22;18496;52.042;6.812;2023-03-19T07:01:05;13.30;99.90
31967;DHT22;18496;52.042;6.812;2023-03-19T07:03:09;13.30;99.90
31967;DHT22;18496;52.042;6.812;2023-03-19T07:05:13;13.40;99.90
31967;DHT22;18496;52.042;6.812;2023-03-19T07:09:50;13.40;99.90
31967;DHT22;18496;52.042;6.812;2023-03-19T07:11:57;13.40;99.90
31967;DHT22;18496;52.042;6.812;2023-03-19T07:14:07;13.40;99.90
31967;DHT22;18496;52.042;6.812;2023-03-19T07:16:36;13.40;99.90
31967;DHT22;18496;52.042;6.812;2023-03-19T07:18:40;13.40;99.90
31967;DHT22;18496;52.042;6.812;2023-03-19T07:20:49;13.40;99.90
31967;DHT22;18496;52.042;6.812;2023-03-19T07:23:01;13.40;99.90
31967;DHT22;18496;52.042;6.812;2023-03-19T07:25:05;13.40;99.90
31967;DHT22;18496;52.042;6.812;2023-03-19T07:27:35;13.50;99.90
31967;DHT22;18496;52.042;6.812;2023-03-19T07:29:41;13.50;99.90
31967;DHT22;18496;52.042;6.812;2023-03-19T07:32:19;13.50;99.90
31967;DHT22;18496;52.042;6.812;2023-03-19T07:34:25;13.50;99.90
31967;DHT22;18496;52.042;6.812;2023-03-19T07:36:55;13.40;99.90
31967;DHT22;18496;52.042;6.812;2023-03-19T07:38:59;13.40;99.90
31967;DHT22;18496;52.042;6.812;2023-03-19T07:41:02;13.40;99.90
31967;DHT22;18496;52.042;6.812;2023-03-19T07:43:06;13.40;99.90
31967;DHT22;18496;52.042;6.812;2023-03-19T07:45:10;13.30;99.90
31967;DHT22;18496;52.042;6.812;2023-03-19T07:47:18;13.40;99.90
31967;DHT22;18496;52.042;6.812;2023-03-19T07:49:22;13.40;99.90
31967;DHT22;18496;52.042;6.812;2023-03-19T07:51:26;13.40;99.90
31967;DHT22;18496;52.042;6.812;2023-03-19T07:53:30;13.40;99.90
31967;DHT22;18496;52.042;6.812;2023-03-19T07:55:33;13.40;99.90
31967;DHT22;18496;52.042;6.812;2023-03-19T07:57:37;13.40;99.90
31967;DHT22;18496;52.042;6.812;2023-03-19T07:59:41;13.50;99.90
31967;DHT22;18496;52.042;6.812;2023-03-19T08:01:44;13.50;99.90
31967;DHT22;18496;52.042;6.812;2023-03-19T08:03:48;13.50;99.90
31967;DHT22;18496;52.042;6.812;2023-03-19T08:05:52;13.50;99.90
31967;DHT22;18496;52.042;6.812;2023-03-19T08:07:56;13.40;99.90
31967;DHT22;18496;52.042;6.812;2023-03-19T08:09:59;13.50;99.90
31967;DHT22;18496;52.042;6.812;2023-03-19T08:12:03;13.50;99.90
31967;DHT22;18496;52.042;6.812;2023-03-19T08:14:06;13.50;99.90
31967;DHT22;18496;52.042;6.812;2023-03-19T08:16:10;13.40;99.90
31967;DHT22;18496;52.042;6.812;2023-03-19T08:18:13;13.40;99.90
31967;DHT22;18496;52.042;6.812;2023-03-19T08:20:17;13.40;99.90
31967;DHT22;18496;52.042;6.812;2023-03-19T08:22:21;13.50;99.90
31967;DHT22;18496;52.042;6.812;2023-03-19T08:24:25;13.50;99.90
31967;DHT22;18496;52.042;6.812;2023-03-19T08:26:28;13.50;99.90
31967;DHT22;18496;52.042;6.812;2023-03-19T08:28:32;13.50;99.90
31967;DHT22;18496;52.042;6.812;2023-03-19T08:30:36;13.50;99.90
31967;DHT22;18496;52.042;6.812;2023-03-19T08:32:41;13.60;99.90
31967;DHT22;18496;52.042;6.812;2023-03-19T08:34:47;13.60;99.90
31967;DHT22;18496;52.042;6.812;2023-03-19T08:36:50;13.60;99.90
31967;DHT22;18496;52.042;6.812;2023-03-19T08:38:54;13.60;99.90
31967;DHT22;18496;52.042;6.812;2023-03-19T08:40:58;13.60;99.90
31967;DHT22;18496;52.042;6.812;2023-03-19T08:43:04;13.60;99.90
31967;DHT22;18496;52.042;6.812;2023-03-19T08:45:09;13.60;99.90
31967;DHT22;18496;52.042;6.812;2023-03-19T08:47:13;13.60;99.90
31967;DHT22;18496;52.042;6.812;2023-03-19T08:49:17;13.70;99.90
31967;DHT22;18496;52.042;6.812;2023-03-19T08:51:21;13.70;99.90
31967;DHT22;18496;52.042;6.812;2023-03-19T08:53:26;13.70;99.90
31967;DHT22;18496;52.042;6.812;2023-03-19T08:55:29;13.70;99.90
31967;DHT22;18496;52.042;6.812;2023-03-19T08:57:33;13.70;99.90
31967;DHT22;18496;52.042;6.812;2023-03-19T08:59:37;13.80;99.90
31967;DHT22;18496;52.042;6.812;2023-03-19T09:01:40;13.90;99.90
31967;DHT22;18496;52.042;6.812;2023-03-19T09:03:44;13.90;99.90
31967;DHT22;18496;52.042;6.812;2023-03-19T09:05:48;14.00;99.90
31967;DHT22;18496;52.042;6.812;2023-03-19T09:07:51;14.00;99.90
31967;DHT22;18496;52.042;6.812;2023-03-19T09:09:55;14.00;99.90
31967;DHT22;18496;52.042;6.812;2023-03-19T09:12:01;14.10;99.90
31967;DHT22;18496;52.042;6.812;2023-03-19T09:14:04;14.10;99.90
31967;DHT22;18496;52.042;6.812;2023-03-19T09:16:08;14.10;99.90
31967;DHT22;18496;52.042;6.812;2023-03-19T09:18:12;14.20;99.90
31967;DHT22;18496;52.042;6.812;2023-03-19T09:20:16;14.20;99.90
31967;DHT22;18496;52.042;6.812;2023-03-19T09:22:19;14.20;99.90
31967;DHT22;18496;52.042;6.812;2023-03-19T09:24:23;14.20;99.90
31967;DHT22;18496;52.042;6.812;2023-03-19T09:26:27;14.30;99.90
31967;DHT22;18496;52.042;6.812;2023-03-19T09:28:30;14.30;99.90
31967;DHT22;18496;52.042;6.812;2023-03-19T09:30:34;14.30;99.90
31967;DHT22;18496;52.042;6.812;2023-03-19T09:32:38;14.30;99.90
31967;DHT22;18496;52.042;6.812;2023-03-19T09:34:41;14.30;99.90
31967;DHT22;18496;52.042;6.812;2023-03-19T09:36:45;14.30;99.90
31967;DHT22;18496;52.042;6.812;2023-03-19T09:38:48;14.30;99.90
31967;DHT22;18496;52.042;6.812;2023-03-19T09:41:15;14.40;99.90
31967;DHT22;18496;52.042;6.812;2023-03-19T09:43:30;14.30;99.90
31967;DHT22;18496;52.042;6.812;2023-03-19T09:45:36;14.30;99.90
31967;DHT22;18496;52.042;6.812;2023-03-19T09:47:40;14.30;99.90
31967;DHT22;18496;52.042;6.812;2023-03-19T09:49:46;14.40;99.90
31967;DHT22;18496;52.042;6.812;2023-03-19T09:52:04;14.40;99.90
31967;DHT22;18496;52.042;6.812;2023-03-19T09:54:30;14.40;99.90
31967;DHT22;18496;52.042;6.812;2023-03-19T09:56:34;14.30;99.90
31967;DHT22;18496;52.042;6.812;2023-03-19T09:58:38;14.40;99.90
31967;DHT22;18496;52.042;6.812;2023-03-19T10:00:42;14.30;99.90
31967;DHT22;18496;52.042;6.812;2023-03-19T10:02:46;14.30;99.90
31967;DHT22;18496;52.042;6.812;2023-03-19T10:05:06;14.30;99.90
31967;DHT22;18496;52.042;6.812;2023-03-19T10:07:20;14.20;99.90
31967;DHT22;18496;52.042;6.812;2023-03-19T10:13:44;14.30;99.90
31967;DHT22;18496;52.042;6.812;2023-03-19T10:15:51;14.40;99.90
31967;DHT22;18496;52.042;6.812;2023-03-19T10:18:04;14.50;99.90
31967;DHT22;18496;52.042;6.812;2023-03-19T10:22:27;14.70;99.90
31967;DHT22;18496;52.042;6.812;2023-03-19T10:24:33;14.80;99.90
31967;DHT22;18496;52.042;6.812;2023-03-19T10:26:39;14.80;99.90
31967;DHT22;18496;52.042;6.812;2023-03-19T10:28:44;14.90;99.90
31967;DHT22;18496;52.042;6.812;2023-03-19T10:35:24;15.10;99.90
31967;DHT22;18496;52.042;6.812;2023-03-19T10:37:30;15.20;99.90
31967;DHT22;18496;52.042;6.812;2023-03-19T10:39:34;15.20;99.90
31967;DHT22;18496;52.042;6.812;2023-03-19T10:44:04;15.20;99.90
31967;DHT22;18496;52.042;6.812;2023-03-19T10:46:11;15.30;99.90
31967;DHT22;18496;52.042;6.812;2023-03-19T10:48:17;15.30;99.90
31967;DHT22;18496;52.042;6.812;2023-03-19T10:50:22;15.40;99.90
31967;DHT22;18496;52.042;6.812;2023-03-19T10:52:31;15.40;99.90
31967;DHT22;18496;52.042;6.812;2023-03-19T10:54:36;15.40;99.90
31967;DHT22;18496;52.042;6.812;2023-03-19T10:56:44;15.30;99.90
31967;DHT22;18496;52.042;6.812;2023-03-19T11:01:11;15.30;99.90
31967;DHT22;18496;52.042;6.812;2023-03-19T11:03:28;15.30;99.90
31967;DHT22;18496;52.042;6.812;2023-03-19T11:05:32;15.40;99.90
31967;DHT22;18496;52.042;6.812;2023-03-19T11:07:36;15.40;99.90
31967;DHT22;18496;52.042;6.812;2023-03-19T11:09:41;15.40;99.90
31967;DHT22;18496;52.042;6.812;2023-03-19T11:11:50;15.40;99.90
31967;DHT22;18496;52.042;6.812;2023-03-19T11:13:55;15.50;99.90
31967;DHT22;18496;52.042;6.812;2023-03-19T11:15:59;15.60;99.90
31967;DHT22;18496;52.042;6.812;2023-03-19T11:20:25;15.70;99.90
31967;DHT22;18496;52.042;6.812;2023-03-19T11:22:30;15.80;99.90
31967;DHT22;18496;52.042;6.812;2023-03-19T11:24:36;15.80;99.90
31967;DHT22;18496;52.042;6.812;2023-03-19T11:26:40;15.80;99.90
31967;DHT22;18496;52.042;6.812;2023-03-19T11:28:43;15.80;99.90
31967;DHT22;18496;52.042;6.812;2023-03-19T11:31:50;15.90;99.90
31967;DHT22;18496;52.042;6.812;2023-03-19T11:33:38;15.90;99.90
31967;DHT22;18496;52.042;6.812;2023-03-19T11:35:59;15.90;99.90
31967;DHT22;18496;52.042;6.812;2023-03-19T11:38:05;15.90;99.90
31967;DHT22;18496;52.042;6.812;2023-03-19T11:49:26;15.90;99.90
31967;DHT22;18496;52.042;6.812;2023-03-19T11:51:47;15.90;99.90
31967;DHT22;18496;52.042;6.812;2023-03-19T12:00:29;16.00;99.90
31967;DHT22;18496;52.042;6.812;2023-03-19T12:02:57;16.00;99.90
31967;DHT22;18496;52.042;6.812;2023-03-19T12:05:22;16.10;99.90
31967;DHT22;18496;52.042;6.812;2023-03-19T12:11:59;16.10;99.90
31967;DHT22;18496;52.042;6.812;2023-03-19T12:14:30;16.10;99.90
31967;DHT22;18496;52.042;6.812;2023-03-19T12:21:11;16.40;99.90
31967;DHT22;18496;52.042;6.812;2023-03-19T12:25:29;16.50;99.90
31967;DHT22;18496;52.042;6.812;2023-03-19T12:27:39;16.50;99.90
31967;DHT22;18496;52.042;6.812;2023-03-19T12:31:56;16.40;99.90
31967;DHT22;18496;52.042;6.812;2023-03-19T12:36:07;16.50;99.90
31967;DHT22;18496;52.042;6.812;2023-03-19T12:42:33;16.70;99.90
31967;DHT22;18496;52.042;6.812;2023-03-19T12:44:40;16.60;99.90
31967;DHT22;18496;52.042;6.812;2023-03-19T12:48:58;16.60;99.90
31967;DHT22;18496;52.042;6.812;2023-03-19T12:51:06;16.60;99.90
31967;DHT22;18496;52.042;6.812;2023-03-19T12:53:15;16.60;99.90
31967;DHT22;18496;52.042;6.812;2023-03-19T12:55:24;16.70;99.90
31967;DHT22;18496;52.042;6.812;2023-03-19T12:57:36;16.80;99.90
31967;DHT22;18496;52.042;6.812;2023-03-19T12:59:44;16.90;99.90
31967;DHT22;18496;52.042;6.812;2023-03-19T13:01:50;16.90;99.90
31967;DHT22;18496;52.042;6.812;2023-03-19T13:04:18;16.80;99.90
31967;DHT22;18496;52.042;6.812;2023-03-19T13:06:27;16.90;99.90
31967;DHT22;18496;52.042;6.812;2023-03-19T13:10:42;17.00;99.90
31967;DHT22;18496;52.042;6.812;2023-03-19T13:12:47;17.20;99.90
31967;DHT22;18496;52.042;6.812;2023-03-19T13:14:58;17.20;99.90
31967;DHT22;18496;52.042;6.812;2023-03-19T13:20:12;17.50;99.90
31967;DHT22;18496;52.042;6.812;2023-03-19T13:21:40;17.60;99.90
31967;DHT22;18496;52.042;6.812;2023-03-19T13:23:45;17.70;99.90
31967;DHT22;18496;52.042;6.812;2023-03-19T13:25:49;17.70;99.90
31967;DHT22;18496;52.042;6.812;2023-03-19T13:27:55;17.70;99.90
31967;DHT22;18496;52.042;6.812;2023-03-19T13:30:00;17.70;99.90
31967;DHT22;18496;52.042;6.812;2023-03-19T13:32:19;17.70;99.90
31967;DHT22;18496;52.042;6.812;2023-03-19T13:34:26;17.70;99.90
31967;DHT22;18496;52.042;6.812;2023-03-19T13:36:34;17.70;99.90
31967;DHT22;18496;52.042;6.812;2023-03-19T13:38:48;17.70;99.90
31967;DHT22;18496;52.042;6.812;2023-03-19T13:40:53;17.70;99.90
31967;DHT22;18496;52.042;6.812;2023-03-19T13:42:57;17.80;99.90
31967;DHT22;18496;52.042;6.812;2023-03-19T13:49:32;18.10;99.90
31967;DHT22;18496;52.042;6.812;2023-03-19T13:51:39;18.20;99.90
31967;DHT22;18496;52.042;6.812;2023-03-19T13:56:31;18.20;99.90
31967;DHT22;18496;52.042;6.812;2023-03-19T13:58:23;18.10;99.90
31967;DHT22;18496;52.042;6.812;2023-03-19T14:00:58;18.10;99.90
31967;DHT22;18496;52.042;6.812;2023-03-19T14:03:01;18.00;99.90
31967;DHT22;18496;52.042;6.812;2023-03-19T14:07:09;17.90;99.90
31967;DHT22;18496;52.042;6.812;2023-03-19T14:09:26;17.90;99.90
31967;DHT22;18496;52.042;6.812;2023-03-19T14:11:34;17.90;99.90
31967;DHT22;18496;52.042;6.812;2023-03-19T14:13:39;17.80;99.90
31967;DHT22;18496;52.042;6.812;2023-03-19T14:15:48;17.70;99.90
31967;DHT22;18496;52.042;6.812;2023-03-19T14:19:57;17.60;99.90
31967;DHT22;18496;52.042;6.812;2023-03-19T14:22:17;17.60;99.90
31967;DHT22;18496;52.042;6.812;2023-03-19T14:26:34;17.50;99.90
31967;DHT22;18496;52.042;6.812;2023-03-19T14:28:51;17.50;99.90
31967;DHT22;18496;52.042;6.812;2023-03-19T14:30:55;17.40;99.90
31967;DHT22;18496;52.042;6.812;2023-03-19T14:33:00;17.40;99.90
31967;DHT22;18496;52.042;6.812;2023-03-19T14:35:05;17.30;99.90
31967;DHT22;18496;52.042;6.812;2023-03-19T14:39:26;17.30;99.90
31967;DHT22;18496;52.042;6.812;2023-03-19T14:41:31;17.30;99.90
31967;DHT22;18496;52.042;6.812;2023-03-19T14:45:41;17.20;99.90